Time,TemperatureF,DewpointF,PressureIn,WindDirection,WindDirectionDegrees,WindSpeedMPH,WindSpeedGustMPH,Humidity,HourlyPrecipIn,Conditions,Clouds,dailyrainin,SoftwareType,DateUTC
2013-02-14 00:02:00,61.0,58.0,30.02,NNE,24,0.0,0.0,91,0.01,,,0.17,,2013-02-14 05:02:00,
2013-02-14 00:11:00,61.0,58.0,30.02,NNE,24,0.0,0.0,91,0.01,,,0.17,,2013-02-14 05:11:00,
2013-02-14 00:22:00,61.0,58.0,30.01,NNE,23,0.0,1.0,91,0.01,,,0.17,,2013-02-14 05:22:00,
2013-02-14 00:32:00,61.0,58.0,30.01,NNE,23,0.0,0.0,91,0.00,,,0.17,,2013-02-14 05:32:00,
2013-02-14 00:42:00,61.0,58.0,30.01,NNE,23,0.0,0.0,91,0.00,,,0.17,,2013-02-14 05:42:00,
2013-02-14 00:52:00,61.0,58.0,30.00,NNE,14,1.0,2.0,91,0.00,,,0.17,,2013-02-14 05:52:00,
2013-02-14 01:02:00,61.0,57.0,29.99,ENE,72,1.0,3.0,86,0.00,,,0.17,,2013-02-14 06:02:00,
2013-02-14 01:11:00,62.0,56.0,30.00,East,81,0.0,1.0,81,0.00,,,0.17,,2013-02-14 06:11:00,
2013-02-14 01:21:00,62.0,56.0,30.00,East,81,0.0,1.0,81,0.00,,,0.17,,2013-02-14 06:21:00,
2013-02-14 01:32:00,62.0,56.0,30.00,East,79,0.0,1.0,80,0.00,,,0.17,,2013-02-14 06:32:00,
2013-02-14 01:42:00,62.0,56.0,30.00,East,79,0.0,1.0,80,0.00,,,0.17,,2013-02-14 06:42:00,
2013-02-14 01:52:00,62.0,56.0,30.00,East,79,0.0,1.0,82,0.00,,,0.17,,2013-02-14 06:52:00,
2013-02-14 02:01:00,62.0,56.0,29.98,North,6,1.0,2.0,82,0.00,,,0.17,,2013-02-14 07:01:00,
2013-02-14 02:11:00,62.0,56.0,29.98,North,6,1.0,2.0,82,0.00,,,0.17,,2013-02-14 07:11:00,
2013-02-14 02:21:00,62.0,56.0,29.98,North,1,0.0,1.0,81,0.00,,,0.17,,2013-02-14 07:21:00,
2013-02-14 02:32:00,62.0,56.0,29.97,SSW,194,0.0,1.0,82,0.00,,,0.17,,2013-02-14 07:32:00,
2013-02-14 02:42:00,62.0,56.0,29.97,SSW,194,0.0,1.0,82,0.00,,,0.17,,2013-02-14 07:42:00,
2013-02-14 02:52:00,62.0,57.0,29.97,SSW,194,0.0,0.0,83,0.00,,,0.17,,2013-02-14 07:52:00,
2013-02-14 03:01:00,62.0,57.0,29.97,South,188,0.0,0.0,85,0.00,,,0.17,,2013-02-14 08:01:00,
2013-02-14 03:11:00,62.0,57.0,29.97,South,188,0.0,0.0,85,0.00,,,0.17,,2013-02-14 08:11:00,
2013-02-14 03:22:00,62.0,57.0,29.96,SE,136,0.0,1.0,85,0.00,,,0.17,,2013-02-14 08:22:00,
2013-02-14 03:32:00,62.0,58.0,29.97,SE,145,0.0,1.0,86,0.00,,,0.17,,2013-02-14 08:32:00,
2013-02-14 03:43:00,62.0,58.0,29.97,SE,145,0.0,1.0,86,0.00,,,0.17,,2013-02-14 08:43:00,
2013-02-14 03:52:00,62.0,58.0,29.97,SSW,211,0.0,0.0,87,0.00,,,0.17,,2013-02-14 08:52:00,
2013-02-14 04:02:00,62.0,58.0,29.96,NE,53,1.0,1.0,88,0.00,,,0.17,,2013-02-14 09:02:00,
2013-02-14 04:11:00,62.0,58.0,29.96,NE,53,1.0,1.0,88,0.00,,,0.17,,2013-02-14 09:11:00,
2013-02-14 04:21:00,62.0,58.0,29.96,SSW,198,0.0,3.0,88,0.00,,,0.17,,2013-02-14 09:21:00,
2013-02-14 04:32:00,62.0,58.0,29.96,ENE,65,0.0,1.0,87,0.00,,,0.17,,2013-02-14 09:32:00,
2013-02-14 04:42:00,62.0,58.0,29.96,ENE,65,0.0,1.0,87,0.00,,,0.17,,2013-02-14 09:42:00,
2013-02-14 04:52:00,62.0,58.0,29.97,ENE,58,0.0,0.0,86,0.00,,,0.17,,2013-02-14 09:52:00,
2013-02-14 05:02:00,62.0,58.0,29.96,West,262,0.0,1.0,88,0.00,,,0.17,,2013-02-14 10:02:00,
2013-02-14 05:11:00,62.0,59.0,29.96,NE,41,0.0,0.0,89,0.00,,,0.17,,2013-02-14 10:11:00,
2013-02-14 05:21:00,62.0,59.0,29.96,NE,41,0.0,0.0,89,0.00,,,0.17,,2013-02-14 10:21:00,
2013-02-14 05:32:00,62.0,59.0,29.96,NE,39,0.0,1.0,89,0.00,,,0.17,,2013-02-14 10:32:00,
2013-02-14 05:42:00,62.0,59.0,29.96,NE,39,0.0,1.0,89,0.00,,,0.17,,2013-02-14 10:42:00,
2013-02-14 05:52:00,62.0,59.0,29.96,NNE,15,0.0,1.0,90,0.00,,,0.17,,2013-02-14 10:52:00,
2013-02-14 06:02:00,62.0,59.0,29.97,NNE,18,0.0,0.0,91,0.00,,,0.17,,2013-02-14 11:02:00,
2013-02-14 06:11:00,62.0,59.0,29.97,NNE,18,0.0,0.0,91,0.00,,,0.17,,2013-02-14 11:11:00,
2013-02-14 06:22:00,62.0,59.0,29.97,NNE,18,0.0,0.0,91,0.00,,,0.17,,2013-02-14 11:22:00,
2013-02-14 06:32:00,61.0,59.0,29.97,NNE,18,0.0,0.0,92,0.00,,,0.17,,2013-02-14 11:32:00,
2013-02-14 06:42:00,61.0,59.0,29.97,NNE,18,0.0,0.0,92,0.00,,,0.17,,2013-02-14 11:42:00,
2013-02-14 06:52:00,61.0,59.0,29.99,NNE,16,0.0,0.0,93,0.00,,,0.17,,2013-02-14 11:52:00,
2013-02-14 07:02:00,61.0,59.0,29.99,NNE,16,0.0,0.0,93,0.00,,,0.17,,2013-02-14 12:02:00,
2013-02-14 07:12:00,61.0,59.0,29.99,NNE,16,0.0,0.0,93,0.00,,,0.17,,2013-02-14 12:12:00,
2013-02-14 07:22:00,61.0,59.0,30.00,NNE,16,0.0,0.0,94,0.00,,,0.17,,2013-02-14 12:22:00,
2013-02-14 07:32:00,61.0,59.0,30.00,NNE,15,0.0,0.0,94,0.00,,,0.17,,2013-02-14 12:32:00,
2013-02-14 07:42:00,61.0,59.0,30.00,NNE,15,0.0,0.0,94,0.00,,,0.17,,2013-02-14 12:42:00,
2013-02-14 07:53:00,62.0,60.0,30.01,NNE,16,0.0,0.0,94,0.00,,,0.17,,2013-02-14 12:53:00,
2013-02-14 08:02:00,62.0,60.0,30.01,NNE,16,0.0,0.0,94,0.00,,,0.17,,2013-02-14 13:02:00,
2013-02-14 08:11:00,62.0,60.0,30.01,NNE,16,0.0,0.0,94,0.00,,,0.17,,2013-02-14 13:11:00,
2013-02-14 08:21:00,62.0,60.0,30.01,NNE,16,0.0,0.0,94,0.00,,,0.17,,2013-02-14 13:21:00,
2013-02-14 08:32:00,62.0,60.0,30.01,NNE,16,0.0,0.0,94,0.00,,,0.17,,2013-02-14 13:32:00,
2013-02-14 08:42:00,62.0,60.0,30.01,NNE,16,0.0,0.0,94,0.00,,,0.17,,2013-02-14 13:42:00,
2013-02-14 08:52:00,63.0,61.0,30.02,NNE,16,0.0,0.0,94,0.00,,,0.17,,2013-02-14 13:52:00,
2013-02-14 09:01:00,63.0,61.0,30.02,NNE,16,0.0,0.0,93,0.00,,,0.17,,2013-02-14 14:01:00,
2013-02-14 09:11:00,63.0,61.0,30.02,NNE,16,0.0,0.0,93,0.00,,,0.17,,2013-02-14 14:11:00,
2013-02-14 09:21:00,63.0,60.0,30.03,North,349,0.0,1.0,91,0.00,,,0.17,,2013-02-14 14:21:00,
2013-02-14 09:32:00,63.0,60.0,30.03,North,352,0.0,1.0,89,0.00,,,0.17,,2013-02-14 14:32:00,
2013-02-14 09:42:00,63.0,60.0,30.03,North,352,0.0,1.0,89,0.00,,,0.17,,2013-02-14 14:42:00,
2013-02-14 09:52:00,64.0,61.0,30.04,North,5,0.0,1.0,90,0.00,,,0.17,,2013-02-14 14:52:00,
2013-02-14 10:02:00,64.0,61.0,30.06,North,350,0.0,1.0,89,0.00,,,0.17,,2013-02-14 15:02:00,
2013-02-14 10:11:00,64.0,61.0,30.06,North,350,0.0,1.0,89,0.00,,,0.17,,2013-02-14 15:11:00,
2013-02-14 10:21:00,64.0,61.0,30.06,North,3,0.0,1.0,89,0.00,,,0.17,,2013-02-14 15:21:00,
2013-02-14 10:32:00,64.0,60.0,30.06,NNE,25,1.0,5.0,88,0.00,,,0.17,,2013-02-14 15:32:00,
2013-02-14 10:42:00,64.0,60.0,30.06,NNE,25,1.0,5.0,88,0.00,,,0.17,,2013-02-14 15:42:00,
2013-02-14 10:52:00,63.0,60.0,30.07,North,355,2.0,5.0,89,0.00,,,0.17,,2013-02-14 15:52:00,
2013-02-14 11:02:00,63.0,61.0,30.06,NNE,16,2.0,4.0,92,0.05,,,0.22,,2013-02-14 16:02:00,
2013-02-14 11:11:00,62.0,60.0,30.06,NNW,334,1.0,5.0,94,0.05,,,0.22,,2013-02-14 16:11:00,
2013-02-14 11:21:00,62.0,60.0,30.06,NNW,334,1.0,5.0,94,0.05,,,0.22,,2013-02-14 16:21:00,
2013-02-14 11:32:00,61.0,60.0,30.08,WNW,292,0.0,3.0,95,0.06,,,0.23,,2013-02-14 16:32:00,
2013-02-14 11:42:00,61.0,60.0,30.08,WNW,292,0.0,3.0,95,0.06,,,0.23,,2013-02-14 16:42:00,
2013-02-14 11:52:00,61.0,60.0,30.07,NE,41,2.0,4.0,95,0.12,,,0.29,,2013-02-14 16:52:00,
2013-02-14 12:01:00,61.0,60.0,30.07,NNW,332,1.0,3.0,96,0.09,,,0.31,,2013-02-14 17:01:00,
2013-02-14 12:11:00,61.0,60.0,30.07,NNW,332,1.0,3.0,96,0.09,,,0.31,,2013-02-14 17:11:00,
2013-02-14 12:21:00,60.0,59.0,30.07,North,352,2.0,4.0,96,0.10,,,0.32,,2013-02-14 17:21:00,
2013-02-14 12:32:00,61.0,60.0,30.06,NNW,347,0.0,3.0,96,0.15,,,0.38,,2013-02-14 17:32:00,
2013-02-14 12:42:00,61.0,60.0,30.06,NNW,347,0.0,3.0,96,0.15,,,0.38,,2013-02-14 17:42:00,
2013-02-14 12:52:00,60.0,59.0,30.06,NE,46,2.0,4.0,96,0.14,,,0.43,,2013-02-14 17:52:00,
2013-02-14 13:01:00,60.0,59.0,30.03,NNE,13,1.0,4.0,96,0.17,,,0.48,,2013-02-14 18:01:00,
2013-02-14 13:11:00,60.0,59.0,30.03,NNE,13,1.0,4.0,96,0.17,,,0.48,,2013-02-14 18:11:00,
2013-02-14 13:23:00,61.0,60.0,30.03,East,79,1.0,2.0,96,0.17,,,0.49,,2013-02-14 18:23:00,
2013-02-14 13:32:00,61.0,60.0,30.01,ENE,63,1.0,2.0,96,0.11,,,0.49,,2013-02-14 18:32:00,
2013-02-14 13:42:00,61.0,60.0,30.01,ENE,63,1.0,2.0,96,0.11,,,0.49,,2013-02-14 18:42:00,
2013-02-14 13:52:00,61.0,60.0,30.01,East,81,1.0,3.0,96,0.07,,,0.50,,2013-02-14 18:52:00,
2013-02-14 14:02:00,61.0,60.0,30.01,ENE,75,0.0,1.0,96,0.02,,,0.50,,2013-02-14 19:02:00,
2013-02-14 14:11:00,61.0,60.0,30.01,ENE,75,0.0,1.0,96,0.02,,,0.50,,2013-02-14 19:11:00,
2013-02-14 14:22:00,61.0,60.0,29.99,North,357,1.0,3.0,96,0.03,,,0.52,,2013-02-14 19:22:00,
2013-02-14 14:32:00,61.0,60.0,29.99,North,349,0.0,2.0,96,0.03,,,0.52,,2013-02-14 19:32:00,
2013-02-14 14:42:00,61.0,60.0,29.99,North,349,0.0,2.0,96,0.03,,,0.52,,2013-02-14 19:42:00,
2013-02-14 14:52:00,61.0,60.0,30.00,NNW,347,0.0,1.0,96,0.02,,,0.52,,2013-02-14 19:52:00,
2013-02-14 15:01:00,61.0,60.0,30.00,North,354,0.0,1.0,96,0.03,,,0.53,,2013-02-14 20:01:00,
2013-02-14 15:11:00,61.0,60.0,30.01,North,354,0.0,0.0,97,0.02,,,0.54,,2013-02-14 20:11:00,
2013-02-14 15:21:00,61.0,60.0,30.01,North,354,0.0,0.0,97,0.02,,,0.54,,2013-02-14 20:21:00,
2013-02-14 15:32:00,61.0,60.0,29.99,North,355,0.0,1.0,97,0.02,,,0.54,,2013-02-14 20:32:00,
2013-02-14 15:42:00,61.0,60.0,29.99,North,355,0.0,1.0,97,0.02,,,0.54,,2013-02-14 20:42:00,
2013-02-14 15:52:00,61.0,60.0,29.99,North,356,0.0,0.0,97,0.02,,,0.54,,2013-02-14 20:52:00,
2013-02-14 16:02:00,61.0,60.0,29.98,North,356,0.0,1.0,97,0.02,,,0.55,,2013-02-14 21:02:00,
2013-02-14 16:11:00,61.0,60.0,29.98,North,356,0.0,1.0,97,0.02,,,0.55,,2013-02-14 21:11:00,
2013-02-14 16:21:00,61.0,60.0,30.00,NNW,347,1.0,1.0,97,0.01,,,0.55,,2013-02-14 21:21:00,
2013-02-14 16:32:00,61.0,60.0,30.00,NNW,347,0.0,0.0,97,0.01,,,0.55,,2013-02-14 21:32:00,
2013-02-14 16:42:00,61.0,60.0,30.00,NNW,347,0.0,0.0,97,0.01,,,0.55,,2013-02-14 21:42:00,
2013-02-14 16:52:00,61.0,60.0,30.01,North,349,0.0,1.0,97,0.01,,,0.55,,2013-02-14 21:52:00,
2013-02-14 17:02:00,61.0,60.0,30.01,North,352,0.0,1.0,97,0.01,,,0.56,,2013-02-14 22:02:00,
2013-02-14 17:11:00,61.0,60.0,30.00,NNW,348,0.0,1.0,97,0.01,,,0.56,,2013-02-14 22:11:00,
2013-02-14 17:21:00,61.0,60.0,30.00,NNW,348,0.0,1.0,97,0.01,,,0.56,,2013-02-14 22:21:00,
2013-02-14 17:32:00,61.0,60.0,30.00,NNE,27,0.0,1.0,97,0.02,,,0.57,,2013-02-14 22:32:00,
2013-02-14 17:42:00,61.0,60.0,30.00,NNE,27,0.0,1.0,97,0.02,,,0.57,,2013-02-14 22:42:00,
2013-02-14 17:52:00,60.0,59.0,30.01,NNW,342,0.0,2.0,97,0.02,,,0.57,,2013-02-14 22:52:00,
2013-02-14 18:01:00,60.0,59.0,30.01,ENE,68,0.0,2.0,97,0.01,,,0.57,,2013-02-14 23:01:00,
2013-02-14 18:11:00,60.0,59.0,30.01,ENE,68,0.0,2.0,97,0.01,,,0.57,,2013-02-14 23:11:00,
2013-02-14 18:21:00,60.0,59.0,30.03,North,360,0.0,2.0,97,0.01,,,0.57,,2013-02-14 23:21:00,
2013-02-14 18:32:00,59.0,58.0,30.03,North,8,0.0,2.0,97,0.00,,,0.57,,2013-02-14 23:32:00,
2013-02-14 18:42:00,59.0,58.0,30.03,North,8,0.0,2.0,97,0.00,,,0.57,,2013-02-14 23:42:00,
2013-02-14 18:52:00,59.0,58.0,30.04,North,352,2.0,3.0,97,0.00,,,0.57,,2013-02-14 23:52:00,
2013-02-14 19:01:00,59.0,58.0,30.03,North,3,3.0,4.0,97,0.00,,,0.57,,2013-02-15 00:01:00,
2013-02-14 19:11:00,59.0,58.0,30.03,North,3,3.0,4.0,97,0.00,,,0.57,,2013-02-15 00:11:00,
2013-02-14 19:22:00,59.0,58.0,30.03,North,10,1.0,4.0,97,0.00,,,0.53,,2013-02-15 00:22:00,
2013-02-14 19:32:00,59.0,58.0,30.03,NNE,21,1.0,2.0,97,0.00,,,0.53,,2013-02-15 00:32:00,
2013-02-14 19:42:00,59.0,58.0,30.03,NNE,21,1.0,2.0,97,0.00,,,0.53,,2013-02-15 00:42:00,
2013-02-14 19:52:00,59.0,58.0,30.04,NNE,12,0.0,1.0,97,0.00,,,0.53,,2013-02-15 00:52:00,
2013-02-14 20:02:00,59.0,58.0,30.03,ENE,77,0.0,1.0,97,0.00,,,0.53,,2013-02-15 01:02:00,
2013-02-14 20:11:00,59.0,58.0,30.03,ENE,77,0.0,1.0,97,0.00,,,0.53,,2013-02-15 01:11:00,
2013-02-14 20:21:00,59.0,58.0,30.02,NNE,25,0.0,3.0,97,0.01,,,0.42,,2013-02-15 01:21:00,
2013-02-14 20:32:00,59.0,58.0,30.05,NNW,346,1.0,2.0,97,0.01,,,0.42,,2013-02-15 01:32:00,
2013-02-14 20:42:00,59.0,58.0,30.05,NNW,346,1.0,2.0,97,0.01,,,0.42,,2013-02-15 01:42:00,
2013-02-14 20:52:00,59.0,58.0,30.04,North,356,0.0,1.0,97,0.01,,,0.42,,2013-02-15 01:52:00,
2013-02-14 21:01:00,59.0,58.0,30.03,NE,40,0.0,1.0,97,0.01,,,0.42,,2013-02-15 02:01:00,
2013-02-14 21:11:00,59.0,58.0,30.03,NE,40,0.0,1.0,97,0.01,,,0.42,,2013-02-15 02:11:00,
2013-02-14 21:21:00,59.0,58.0,30.03,ESE,104,0.0,1.0,97,0.00,,,0.42,,2013-02-15 02:21:00,
2013-02-14 21:32:00,59.0,58.0,30.02,East,83,1.0,2.0,97,0.01,,,0.43,,2013-02-15 02:32:00,
2013-02-14 21:42:00,59.0,58.0,30.02,East,83,1.0,2.0,97,0.01,,,0.43,,2013-02-15 02:42:00,
2013-02-14 21:52:00,59.0,58.0,30.03,SSW,204,0.0,1.0,97,0.01,,,0.43,,2013-02-15 02:52:00,
2013-02-14 22:02:00,59.0,58.0,30.07,West,275,0.0,1.0,97,0.01,,,0.43,,2013-02-15 03:02:00,
2013-02-14 22:11:00,59.0,58.0,30.07,West,275,0.0,1.0,97,0.01,,,0.43,,2013-02-15 03:11:00,
2013-02-14 22:22:00,59.0,58.0,30.07,WNW,293,0.0,1.0,97,0.02,,,0.44,,2013-02-15 03:22:00,
2013-02-14 22:32:00,59.0,58.0,30.06,East,96,0.0,0.0,97,0.04,,,0.47,,2013-02-15 03:32:00,
2013-02-14 22:42:00,59.0,58.0,30.06,East,96,0.0,0.0,97,0.04,,,0.47,,2013-02-15 03:42:00,
2013-02-14 22:52:00,59.0,58.0,30.04,NNE,13,0.0,0.0,97,0.06,,,0.49,,2013-02-15 03:52:00,
2013-02-14 23:01:00,59.0,58.0,30.02,East,82,0.0,1.0,97,0.09,,,0.52,,2013-02-15 04:01:00,
2013-02-14 23:11:00,59.0,58.0,30.02,East,82,0.0,1.0,97,0.09,,,0.52,,2013-02-15 04:11:00,
2013-02-14 23:21:00,59.0,58.0,30.02,East,82,0.0,1.0,98,0.08,,,0.52,,2013-02-15 04:21:00,
2013-02-14 23:32:00,59.0,58.0,30.04,ENE,77,0.0,0.0,98,0.06,,,0.53,,2013-02-15 04:32:00,
2013-02-14 23:42:00,59.0,58.0,30.04,ENE,77,0.0,0.0,98,0.06,,,0.53,,2013-02-15 04:42:00,
2013-02-14 23:52:00,59.0,58.0,30.03,NNE,19,0.0,1.0,98,0.03,,,0.53,,2013-02-15 04:52:00,